Time;durP1;ratioP1;P1;durP2;ratioP2;P2;SDS_P1;SDS_P2;PMS_P1;PMS_P2;Temp;Humidity;BMP_temperature;BMP_pressure;BME280_temperature;BME280_humidity;BME280_pressure;Samples;Min_cycle;Max_cycle;Signal;HPM_P1;HPM_P2
2021/12/02 00:02:28;;;;;;;12.85;7.38;;;;;;;12.37;68.68;99541.88;5036112;28;20044;-77
2021/12/02 00:05:13;;;;;;;;;;;;;;;12.37;67.74;99547.34;5040425;28;20414;-77
2021/12/02 00:07:58;;;;;;;10.80;6.65;;;;;;;12.35;67.70;99542.22;5030205;28;19913;-77
2021/12/02 00:10:43;;;;;;;8.45;5.55;;;;;;;12.35;67.37;99527.81;5023918;28;20068;-77
2021/12/02 00:13:30;;;;;;;7.65;4.90;;;;;;;12.36;68.26;99529.38;5029619;28;20040;-77
2021/12/02 00:22:05;;;;;;;10.98;6.65;;;;;;;12.30;67.86;99512.53;5033802;28;19917;-77
2021/12/02 00:24:56;;;;;;;14.65;7.25;;;;;;;12.34;68.17;99521.56;5025871;28;20044;-77
2021/12/02 00:27:41;;;;;;;14.85;7.10;;;;;;;12.32;68.68;99509.44;5028907;28;20048;-77
2021/12/02 00:30:26;;;;;;;9.75;5.93;;;;;;;12.33;70.04;99514.56;5035659;28;20418;-77
2021/12/02 00:33:13;;;;;;;7.05;4.68;;;;;;;12.33;70.95;99509.09;5034390;28;20052;-77
2021/12/02 00:35:59;;;;;;;10.45;6.00;;;;;;;12.34;71.29;99518.84;5030546;28;20040;-77
2021/12/02 00:38:46;;;;;;;13.07;6.53;;;;;;;12.30;72.00;99517.97;5035547;28;20044;-78
2021/12/02 00:41:31;;;;;;;11.05;6.35;;;;;;;12.30;72.48;99512.53;5033306;28;20045;-76
2021/12/02 00:44:18;;;;;;;9.75;5.90;;;;;;;12.33;72.62;99509.09;5032140;28;20052;-77
2021/12/02 00:47:03;;;;;;;12.30;6.50;;;;;;;12.32;72.82;99512.16;5019233;28;20049;-77
2021/12/02 00:49:49;;;;;;;9.30;6.05;;;;;;;12.29;72.67;99507.44;5034164;28;20095;-76
2021/12/02 00:52:37;;;;;;;9.32;5.47;;;;;;;12.29;72.73;99507.44;5031279;28;20044;-77
2021/12/02 00:55:25;;;;;;;10.40;5.68;;;;;;;12.25;72.74;99507.34;5020527;28;20056;-77
2021/12/02 00:58:18;;;;;;;11.80;6.10;;;;;;;12.27;72.65;99512.44;5033239;28;20405;-76
2021/12/02 01:01:04;;;;;;;9.50;5.10;;;;;;;12.29;73.28;99504.72;5029487;28;20056;-76
2021/12/02 01:03:53;;;;;;;9.52;4.78;;;;;;;12.28;73.14;99490.28;5031342;28;20409;-77
2021/12/02 01:06:39;;;;;;;11.35;5.32;;;;;;;12.28;73.41;99493.03;5027502;28;20045;-77
2021/12/02 01:09:24;;;;;;;8.93;5.05;;;;;;;12.31;73.58;99494.22;5031361;28;20056;-77
2021/12/02 01:12:09;;;;;;;8.90;4.43;;;;;;;12.34;73.83;99490.81;5034492;28;20049;-77
2021/12/02 01:14:54;;;;;;;9.02;4.18;;;;;;;12.34;73.73;99488.84;5032914;28;20049;-77
2021/12/02 01:17:40;;;;;;;7.03;3.63;;;;;;;12.35;73.61;99489.63;5031745;28;20052;-77
2021/12/02 01:20:24;;;;;;;7.68;4.00;;;;;;;12.37;73.74;99481.91;5038417;28;20072;-78
2021/12/02 01:23:09;;;;;;;;;;;;;;;12.37;73.88;99482.69;5036949;28;20044;-77
2021/12/02 01:25:59;;;;;;;6.10;3.53;;;;;;;12.39;73.85;99485.06;5038372;28;19913;-77
2021/12/02 01:28:45;;;;;;;8.88;4.13;;;;;;;12.38;73.83;99478.03;5042891;28;20045;-78
2021/12/02 01:31:33;;;;;;;9.80;5.20;;;;;;;12.42;73.81;99473.44;5036643;28;20053;-77
2021/12/02 01:34:23;;;;;;;6.60;3.95;;;;;;;12.42;73.80;99468.00;5022330;28;20060;-77
2021/12/02 01:37:10;;;;;;;9.98;4.55;;;;;;;12.41;73.80;99466.41;5035065;28;20044;-77
2021/12/02 01:39:57;;;;;;;9.15;4.22;;;;;;;12.38;73.79;99461.69;5035927;28;20076;-77
2021/12/02 01:42:46;;;;;;;6.70;3.88;;;;;;;12.40;73.80;99462.09;5027771;28;20044;-77
2021/12/02 01:45:32;;;;;;;7.28;3.67;;;;;;;12.40;73.85;99459.38;5041482;28;20072;-77
2021/12/02 01:48:24;;;;;;;7.63;4.20;;;;;;;12.37;73.81;99466.34;5031656;28;20044;-77
2021/12/02 01:51:11;;;;;;;5.28;3.80;;;;;;;12.35;73.60;99468.63;5041972;28;20041;-77
2021/12/02 01:54:26;;;;;;;6.65;4.15;;;;;;;12.33;73.18;99460.03;5029978;28;20041;-78
2021/12/02 01:57:26;;;;;;;3.70;2.60;;;;;;;12.36;73.16;99461.25;5038483;28;20044;-77
2021/12/02 02:00:14;;;;;;;8.95;3.67;;;;;;;12.34;72.94;99455.38;5041502;28;20050;-77
2021/12/02 02:03:02;;;;;;;9.40;4.40;;;;;;;12.34;72.80;99449.91;5039125;28;20053;-77
2021/12/02 02:05:56;;;;;;;7.47;4.25;;;;;;;12.32;72.59;99446.75;5023300;28;20053;-77
2021/12/02 02:08:45;;;;;;;5.70;3.45;;;;;;;12.29;72.72;99445.50;5022613;28;20156;-77
2021/12/02 02:11:30;;;;;;;6.15;3.60;;;;;;;12.28;72.48;99441.22;5031694;28;20414;-77
2021/12/02 02:14:16;;;;;;;6.72;4.43;;;;;;;12.28;71.59;99435.00;5043182;28;20402;-77
2021/12/02 02:17:07;;;;;;;5.97;3.28;;;;;;;12.23;71.31;99433.34;5039125;28;20052;-77
2021/12/02 02:19:52;;;;;;;7.22;4.45;;;;;;;12.24;72.40;99429.44;5044497;28;20044;-77
2021/12/02 02:22:39;;;;;;;7.43;3.38;;;;;;;12.21;72.75;99424.72;5040605;28;20045;-77
2021/12/02 02:25:26;;;;;;;13.65;4.70;;;;;;;12.20;73.16;99423.13;5036820;28;20045;-77
2021/12/02 02:28:12;;;;;;;9.15;3.15;;;;;;;12.22;72.99;99420.06;5034854;28;20056;-77
2021/12/02 02:30:57;;;;;;;8.65;4.55;;;;;;;12.23;72.84;99411.53;5038714;28;20040;-76
2021/12/02 02:33:48;;;;;;;5.90;2.45;;;;;;;12.26;73.00;99399.91;5034429;28;20048;-77
2021/12/02 02:36:37;;;;;;;6.00;3.20;;;;;;;12.25;73.10;99395.59;5034499;28;20048;-77
2021/12/02 02:39:22;;;;;;;7.47;3.75;;;;;;;12.25;73.13;99400.25;5039869;28;20048;-76
2021/12/02 02:42:09;;;;;;;9.63;4.00;;;;;;;12.21;73.29;99392.00;5037059;28;20057;-77
2021/12/02 02:44:54;;;;;;;13.13;3.40;;;;;;;12.18;73.11;99387.28;5033357;28;20052;-77
2021/12/02 02:47:39;;;;;;;7.47;3.63;;;;;;;12.20;73.26;99390.44;5038731;28;20064;-77
2021/12/02 02:50:24;;;;;;;6.00;4.03;;;;;;;12.19;72.83;99385.34;5036469;28;20048;-76
2021/12/02 02:53:20;;;;;;;6.65;2.80;;;;;;;12.23;72.95;99386.22;5034497;28;20052;-77
2021/12/02 02:56:10;;;;;;;6.97;3.13;;;;;;;12.22;72.91;99387.34;5036672;28;20045;-77
2021/12/02 03:02:51;;;;;;;7.13;3.42;;;;;;;12.20;72.89;99378.72;5033925;28;20049;-77
2021/12/02 03:08:13;;;;;;;4.35;2.65;;;;;;;12.21;72.81;99367.47;5013578;28;20576;-77
2021/12/02 03:10:59;;;;;;;6.28;2.97;;;;;;;12.13;73.05;99352.16;5017021;28;20402;-77
2021/12/02 03:13:51;;;;;;;9.30;5.10;;;;;;;12.17;72.59;99369.34;5024667;28;20040;-76
2021/12/02 03:16:44;;;;;;;5.80;3.88;;;;;;;12.12;72.80;99364.19;5036057;28;20044;-77
2021/12/02 03:19:29;;;;;;;7.10;4.78;;;;;;;12.13;71.82;99362.25;5043370;28;20053;-77
2021/12/02 03:22:16;;;;;;;8.98;5.18;;;;;;;12.14;70.80;99355.66;5034366;28;20052;-77
2021/12/02 03:25:01;;;;;;;7.30;4.95;;;;;;;12.14;70.71;99359.16;5037675;28;20520;-76
2021/12/02 03:27:46;;;;;;;7.18;4.60;;;;;;;12.12;69.86;99345.13;5036407;28;20053;-77
2021/12/02 03:30:32;;;;;;;6.38;3.50;;;;;;;12.08;69.78;99349.72;5033017;28;20520;-77
2021/12/02 03:33:16;;;;;;;7.35;4.57;;;;;;;12.10;70.11;99352.06;5040167;28;20048;-77
2021/12/02 03:36:01;;;;;;;;;;;;;;;12.06;70.76;99348.47;5037373;28;20044;-77
2021/12/02 03:38:48;;;;;;;7.68;5.60;;;;;;;12.04;70.61;99346.09;5035946;28;19913;-77
2021/12/02 03:41:34;;;;;;;7.78;4.75;;;;;;;11.94;69.56;99335.78;5041766;28;20048;-77
2021/12/02 03:44:19;;;;;;;10.23;4.43;;;;;;;11.90;69.04;99343.09;5034984;28;20064;-77
2021/12/02 03:47:04;;;;;;;11.00;5.50;;;;;;;11.98;70.03;99353.00;5032229;28;20052;-77
2021/12/02 03:49:49;;;;;;;4.68;3.63;;;;;;;12.03;71.25;99347.28;5037472;28;20048;-77
2021/12/02 03:52:34;;;;;;;6.63;3.85;;;;;;;12.00;72.06;99342.53;5035672;28;20045;-77
2021/12/02 03:55:19;;;;;;;5.78;2.78;;;;;;;11.99;72.27;99347.19;5033313;28;20056;-77
2021/12/02 03:58:04;;;;;;;5.13;3.00;;;;;;;11.93;71.78;99337.72;5040167;22;20052;-76
2021/12/02 04:00:49;;;;;;;7.93;3.95;;;;;;;11.92;72.05;99335.34;5013572;28;20053;-76
2021/12/02 04:03:34;;;;;;;5.03;2.58;;;;;;;11.92;72.85;99330.69;5019203;28;20049;-76
2021/12/02 04:06:20;;;;;;;8.40;4.47;;;;;;;11.90;72.63;99332.97;5017052;28;20462;-76
2021/12/02 04:09:12;;;;;;;5.88;3.97;;;;;;;11.93;72.53;99332.28;4996093;28;20042;-74
2021/12/02 04:12:04;;;;;;;7.72;4.93;;;;;;;11.99;72.76;99332.75;4994066;28;20122;-75
2021/12/02 04:15:04;;;;;;;13.18;8.13;;;;;;;11.97;71.53;99327.69;4997229;28;20429;-75
2021/12/02 04:17:48;;;;;;;12.18;7.25;;;;;;;11.94;71.32;99316.72;4994674;28;20530;-75
2021/12/02 04:20:34;;;;;;;;;;;;;;;11.95;70.53;99318.28;5001464;28;20053;-77
2021/12/02 04:23:18;;;;;;;10.65;6.38;;;;;;;11.91;71.25;99315.50;4999549;28;19917;-77
2021/12/02 04:26:03;;;;;;;7.20;4.25;;;;;;;11.88;71.54;99310.78;4997381;28;20053;-77
2021/12/02 04:28:48;;;;;;;7.97;5.75;;;;;;;11.88;71.12;99313.50;5004869;28;20052;-78
2021/12/02 04:31:33;;;;;;;;;;;;;;;11.93;72.54;99313.22;5002863;28;20061;-77
2021/12/02 04:34:18;;;;;;;7.38;3.63;;;;;;;11.87;73.53;99306.47;4998068;28;19914;-77
2021/12/02 04:37:03;;;;;;;11.80;6.65;;;;;;;11.79;73.19;99312.09;4995916;28;20054;-77
2021/12/02 04:39:47;;;;;;;;;;;;;;;11.77;73.31;99312.50;4999744;28;20049;-75
2021/12/02 04:42:32;;;;;;;12.98;6.85;;;;;;;11.74;73.33;99320.56;4995385;28;19926;-77
2021/12/02 04:45:17;;;;;;;;;;;;;;;11.78;72.51;99324.16;5006347;28;20061;-76
2021/12/02 04:48:02;;;;;;;7.07;4.63;;;;;;;11.75;72.88;99320.22;4996315;28;19914;-76
2021/12/02 04:50:47;;;;;;;5.13;3.05;;;;;;;11.69;73.29;99320.81;4995379;28;20045;-76
2021/12/02 04:53:32;;;;;;;8.52;5.85;;;;;;;11.66;73.08;99321.53;4993645;28;20045;-76
2021/12/02 04:56:17;;;;;;;6.43;3.92;;;;;;;11.74;73.47;99320.56;4997301;28;20053;-76
2021/12/02 04:59:02;;;;;;;4.47;2.78;;;;;;;11.81;73.80;99309.84;4994313;28;20049;-76
2021/12/02 05:01:47;;;;;;;;;;;;;;;11.80;73.79;99324.59;4997521;28;20095;-76
2021/12/02 05:04:31;;;;;;;9.27;5.40;;;;;;;11.73;73.02;99322.53;5000981;28;19913;-77
2021/12/02 05:07:16;;;;;;;8.75;4.88;;;;;;;11.77;72.83;99315.22;4998501;28;20058;-76
2021/12/02 05:10:01;;;;;;;5.90;4.35;;;;;;;11.85;73.53;99329.75;5004737;28;20406;-76
2021/12/02 05:12:45;;;;;;;4.15;2.80;;;;;;;11.82;73.91;99314.94;5000236;28;20534;-76
2021/12/02 05:15:30;;;;;;;5.65;3.63;;;;;;;11.80;74.36;99316.41;4994875;28;20046;-75
2021/12/02 05:18:15;;;;;;;7.28;4.28;;;;;;;11.77;74.07;99323.38;4999495;28;20422;-75
2021/12/02 05:21:00;;;;;;;6.60;3.90;;;;;;;11.79;74.56;99314.84;4997785;28;20529;-75
2021/12/02 05:23:45;;;;;;;6.47;4.00;;;;;;;11.79;74.50;99320.28;4999465;28;20061;-75
2021/12/02 05:26:29;;;;;;;7.05;4.22;;;;;;;11.74;74.36;99321.34;4997609;28;20045;-75
2021/12/02 05:29:14;;;;;;;8.98;5.75;;;;;;;11.71;74.40;99308.44;5000419;28;20053;-76
2021/12/02 05:31:59;;;;;;;6.70;4.38;;;;;;;11.74;74.44;99307.75;4997316;28;20046;-75
2021/12/02 05:34:47;;;;;;;7.38;4.20;;;;;;;11.78;74.21;99313.28;5001326;28;20053;-76
2021/12/02 05:37:32;;;;;;;6.72;3.67;;;;;;;11.79;74.52;99309.38;5012925;28;20041;-78
2021/12/02 05:40:16;;;;;;;9.30;3.30;;;;;;;11.79;74.60;99310.19;5001323;28;20294;-75
2021/12/02 05:43:01;;;;;;;7.35;4.30;;;;;;;11.81;74.69;99305.19;5000836;28;20049;-77
2021/12/02 05:45:46;;;;;;;9.07;3.63;;;;;;;11.79;75.09;99295.78;5000716;28;20424;-77
2021/12/02 05:48:30;;;;;;;10.07;3.38;;;;;;;11.78;75.43;99299.66;5001673;28;20046;-77
2021/12/02 05:51:15;;;;;;;;;;;;;;;11.80;75.16;99302.81;5001071;28;20054;-77
2021/12/02 05:53:59;;;;;;;8.35;4.43;;;;;;;11.79;75.22;99299.28;4988334;28;20133;-76
2021/12/02 05:56:45;;;;;;;14.50;4.75;;;;;;;11.80;74.99;99292.69;5001967;28;20045;-76
2021/12/02 05:59:30;;;;;;;;;;;;;;;11.82;74.30;99287.69;4997411;28;20042;-75
2021/12/02 06:02:14;;;;;;;8.43;5.70;;;;;;;11.79;73.74;99291.13;4993953;28;19917;-74
2021/12/02 06:04:59;;;;;;;;;;;;;;;11.80;73.95;99289.19;4998467;28;20531;-75
2021/12/02 06:07:44;;;;;;;9.73;5.90;;;;;;;11.77;73.30;99279.00;4993819;28;19914;-76
2021/12/02 06:10:31;;;;;;;13.23;8.07;;;;;;;11.76;73.18;99283.66;4993717;28;20145;-76
2021/12/02 06:13:16;;;;;;;8.27;5.50;;;;;;;11.74;73.57;99285.16;4999227;28;20407;-76
2021/12/02 06:16:01;;;;;;;14.15;6.85;;;;;;;11.74;72.63;99275.06;4995949;28;20041;-77
2021/12/02 06:18:46;;;;;;;13.48;6.45;;;;;;;11.71;71.71;99278.47;4995561;28;20045;-76
2021/12/02 06:21:31;;;;;;;9.52;5.95;;;;;;;11.71;70.19;99275.75;4999168;28;20415;-78
2021/12/02 06:24:16;;;;;;;;;;;;;;;11.71;65.86;99274.97;5002526;28;20417;-78
2021/12/02 06:27:01;;;;;;;14.57;8.00;;;;;;;11.69;64.69;99269.88;4992657;28;19914;-77
2021/12/02 06:29:45;;;;;;;11.85;7.60;;;;;;;11.67;64.55;99276.84;5003843;28;20041;-79
2021/12/02 06:32:30;;;;;;;11.38;6.15;;;;;;;11.57;66.49;99276.25;4992802;28;20046;-75
2021/12/02 06:35:16;;;;;;;8.60;5.22;;;;;;;11.49;65.10;99268.28;4988642;28;20049;-79
2021/12/02 06:38:01;;;;;;;14.40;8.15;;;;;;;11.34;65.02;99277.28;5001814;28;20046;-77
2021/12/02 06:40:46;;;;;;;11.82;6.57;;;;;;;11.33;64.28;99278.41;4995663;28;20415;-75
2021/12/02 06:43:30;;;;;;;;;;;;;;;11.29;63.40;99269.38;4996035;28;20530;-75
2021/12/02 06:46:15;;;;;;;12.20;8.23;;;;;;;11.22;63.04;99274.69;4999837;28;19914;-75
2021/12/02 06:49:00;;;;;;;10.15;6.53;;;;;;;11.15;62.93;99264.44;4994886;28;20069;-75
2021/12/02 06:51:45;;;;;;;15.45;8.25;;;;;;;11.09;62.97;99258.47;4996513;28;20050;-75
2021/12/02 06:54:29;;;;;;;10.60;6.03;;;;;;;11.11;62.38;99258.91;4999795;28;20053;-75
2021/12/02 06:57:15;;;;;;;12.73;8.52;;;;;;;11.14;62.44;99252.75;4997624;28;20054;-75
2021/12/02 07:00:07;;;;;;;15.00;9.00;;;;;;;11.11;62.27;99249.97;4996203;28;20057;-76
2021/12/02 07:02:52;;;;;;;11.93;8.52;;;;;;;11.20;61.90;99244.31;4995363;28;20057;-76
2021/12/02 07:05:37;;;;;;;11.80;7.60;;;;;;;11.06;62.31;99244.78;5013648;28;20584;-77
2021/12/02 07:08:22;;;;;;;11.10;6.07;;;;;;;11.00;62.38;99240.75;4996102;28;20053;-76
2021/12/02 07:11:08;;;;;;;;;;;;;;;11.02;61.97;99241.97;5000584;28;20061;-78
2021/12/02 07:13:59;;;;;;;10.57;7.40;;;;;;;10.98;61.96;99232.94;5011667;28;19914;-77
2021/12/02 07:16:44;;;;;;;13.68;7.57;;;;;;;10.81;62.78;99251.59;5011326;28;20045;-76
2021/12/02 07:19:29;;;;;;;9.35;6.25;;;;;;;10.66;62.89;99253.16;5005721;28;20125;-75
2021/12/02 07:22:14;;;;;;;10.60;6.57;;;;;;;10.56;63.20;99250.97;5002469;28;20049;-76
2021/12/02 07:24:58;;;;;;;11.90;7.80;;;;;;;10.56;63.39;99264.56;5005317;28;20407;-77
2021/12/02 07:27:44;;;;;;;13.05;7.90;;;;;;;10.41;64.62;99273.50;4996048;28;20049;-77
2021/12/02 07:30:29;;;;;;;;;;;;;;;10.49;66.60;99276.03;5004578;28;20069;-77
2021/12/02 07:33:14;;;;;;;15.90;7.88;;;;;;;10.35;67.71;99266.75;4998632;28;19914;-78
2021/12/02 07:35:59;;;;;;;13.38;6.70;;;;;;;10.16;67.93;99273.63;4994268;28;20045;-76
2021/12/02 07:38:45;;;;;;;14.55;6.80;;;;;;;10.08;68.21;99273.75;4992778;28;20045;-76
2021/12/02 07:41:30;;;;;;;11.75;8.07;;;;;;;10.11;67.97;99275.75;4992756;28;20047;-77
2021/12/02 07:44:15;;;;;;;10.88;6.95;;;;;;;10.11;67.81;99273.03;4993053;28;20057;-77
2021/12/02 07:47:01;;;;;;;9.18;6.13;;;;;;;10.27;68.28;99276.63;4997172;28;20057;-75
2021/12/02 07:49:48;;;;;;;12.68;8.52;;;;;;;10.28;66.97;99270.84;4994363;28;20049;-75
2021/12/02 07:52:34;;;;;;;14.90;9.00;;;;;;;10.24;66.68;99272.69;4998719;28;20065;-76
2021/12/02 07:55:21;;;;;;;14.85;8.40;;;;;;;10.16;67.43;99272.81;4990770;28;20514;-76
2021/12/02 07:58:07;;;;;;;16.58;8.15;;;;;;;10.24;68.29;99280.03;4996600;28;20420;-77
2021/12/02 08:00:58;;;;;;;12.80;7.63;;;;;;;10.24;69.01;99278.13;4997549;28;20049;-77
2021/12/02 08:03:44;;;;;;;12.68;7.88;;;;;;;10.21;68.42;99284.22;4998184;28;20049;-78
2021/12/02 08:06:29;;;;;;;17.90;9.10;;;;;;;10.32;68.74;99281.78;4995985;28;20511;-78
2021/12/02 08:09:15;;;;;;;17.08;8.85;;;;;;;10.42;69.23;99280.50;4999885;28;20061;-77
2021/12/02 08:12:01;;;;;;;16.42;8.25;;;;;;;10.39;67.21;99273.84;4998682;28;20407;-78
2021/12/02 08:14:46;;;;;;;12.38;7.88;;;;;;;10.12;68.34;99270.00;4995203;28;20057;-79
2021/12/02 08:17:31;;;;;;;;;;;;;;;10.21;68.38;99273.38;4994431;28;20122;-79
2021/12/02 08:20:17;;;;;;;16.52;7.68;;;;;;;10.19;68.99;99264.78;4998699;28;19913;-77
2021/12/02 08:23:04;;;;;;;9.13;5.63;;;;;;;10.41;70.91;99262.63;4995604;28;20526;-79
2021/12/02 08:25:49;;;;;;;11.77;6.68;;;;;;;10.51;71.76;99259.41;4996096;28;20052;-77
2021/12/02 08:28:34;;;;;;;7.05;3.92;;;;;;;10.43;72.23;99263.06;4997290;28;20049;-77
2021/12/02 08:31:18;;;;;;;10.38;4.72;;;;;;;10.58;73.63;99271.22;5000752;28;20053;-77
2021/12/02 08:34:03;;;;;;;9.70;3.55;;;;;;;10.62;73.98;99268.59;5003620;28;20049;-78
2021/12/02 08:36:53;;;;;;;;;;;;;;;10.62;71.47;99263.16;4998238;28;20049;-77
2021/12/02 08:39:41;;;;;;;13.48;7.78;;;;;;;10.56;69.02;99261.84;4998798;28;19913;-78
2021/12/02 08:42:32;;;;;;;32.17;9.35;;;;;;;10.48;69.28;99268.22;4994846;28;20521;-78
2021/12/02 08:45:16;;;;;;;11.18;8.32;;;;;;;10.50;66.95;99264.03;4997567;28;20041;-77
2021/12/02 08:48:02;;;;;;;;;;;;;;;10.43;67.03;99263.84;4995298;28;20537;-77
2021/12/02 08:50:48;;;;;;;8.52;5.93;;;;;;;10.46;67.32;99262.38;4991769;28;19918;-77
2021/12/02 08:53:32;;;;;;;11.65;6.43;;;;;;;10.35;67.30;99256.66;4996563;28;20041;-77
2021/12/02 08:56:17;;;;;;;9.90;6.25;;;;;;;10.32;67.20;99264.69;4987967;28;20450;-77
2021/12/02 08:59:02;;;;;;;14.32;7.88;;;;;;;10.40;66.05;99266.47;4993306;28;20065;-78
2021/12/02 09:01:47;;;;;;;13.60;6.75;;;;;;;10.42;68.57;99270.41;4998497;28;20058;-77
2021/12/02 09:04:32;;;;;;;8.25;5.45;;;;;;;10.38;69.33;99264.09;4996578;28;20538;-78
2021/12/02 09:07:17;;;;;;;10.27;5.82;;;;;;;10.37;69.69;99267.97;4994640;28;20061;-78
2021/12/02 09:10:05;;;;;;;14.18;8.63;;;;;;;10.23;69.67;99267.59;4999105;28;20065;-78
2021/12/02 09:12:50;;;;;;;14.20;8.05;;;;;;;10.18;69.44;99259.69;4996034;28;20053;-77
2021/12/02 09:15:36;;;;;;;;;;;;;;;10.25;69.94;99259.91;4995443;28;20051;-77
2021/12/02 09:18:20;;;;;;;15.98;6.28;;;;;;;10.36;71.73;99260.19;4995644;28;20134;-77
2021/12/02 09:21:06;;;;;;;8.27;5.63;;;;;;;10.33;71.64;99255.41;4995865;28;20065;-77
2021/12/02 09:23:52;;;;;;;12.20;8.32;;;;;;;10.32;70.27;99257.34;4993607;28;20061;-76
2021/12/02 09:26:38;;;;;;;17.25;8.52;;;;;;;10.34;69.99;99246.94;4997365;28;20045;-75
2021/12/02 09:29:24;;;;;;;19.67;9.65;;;;;;;10.40;69.79;99255.63;4995066;28;20419;-76
2021/12/02 09:32:11;;;;;;;12.80;8.23;;;;;;;10.43;70.46;99252.97;4995285;28;20066;-76
2021/12/02 09:34:56;;;;;;;12.88;8.70;;;;;;;10.35;70.58;99261.31;4993378;28;20051;-76
2021/12/02 09:37:41;;;;;;;9.10;6.90;;;;;;;10.37;72.40;99262.53;4995616;28;20258;-77
2021/12/02 09:40:26;;;;;;;11.43;7.32;;;;;;;10.36;73.76;99265.59;4995368;28;20053;-77
2021/12/02 09:43:13;;;;;;;8.32;5.70;;;;;;;10.38;74.13;99260.59;4993573;28;20416;-76
2021/12/02 09:45:58;;;;;;;11.38;8.52;;;;;;;10.40;74.29;99255.63;4997847;28;20049;-76
2021/12/02 09:48:43;;;;;;;11.48;8.05;;;;;;;10.43;73.27;99244.81;4996590;28;20053;-76
2021/12/02 09:51:37;;;;;;;19.27;10.43;;;;;;;10.50;70.95;99244.22;4997583;28;20522;-76
2021/12/02 09:54:31;;;;;;;17.97;10.47;;;;;;;10.51;70.80;99252.03;5000314;28;20061;-77
2021/12/02 09:57:19;;;;;;;18.23;11.23;;;;;;;10.44;71.37;99235.53;4997827;28;20053;-76
2021/12/02 10:00:06;;;;;;;13.73;8.73;;;;;;;10.57;71.25;99238.94;5050937;23;20057;-55
2021/12/02 10:03:05;;;;;;;21.95;11.48;;;;;;;10.52;70.52;99231.84;5041348;28;20422;-55
2021/12/02 10:05:59;;;;;;;12.60;7.20;;;;;;;10.67;73.47;99233.78;5040713;28;20072;-56
2021/12/02 10:11:49;;;;;;;17.83;8.27;;;;;;;10.64;73.36;99218.19;5029787;28;20048;-55
2021/12/02 10:14:39;;;;;;;22.75;10.93;;;;;;;10.58;71.81;99213.34;5049839;28;20407;-55
2021/12/02 10:17:34;;;;;;;22.52;11.68;;;;;;;10.43;71.23;99204.06;5021363;28;20065;-55
2021/12/02 10:23:09;;;;;;;15.82;10.48;;;;;;;10.27;71.20;99198.63;5036115;28;19921;-55
2021/12/02 10:25:58;;;;;;;24.83;11.40;;;;;;;10.44;70.77;99185.84;5040857;28;20048;-55
2021/12/02 10:28:43;;;;;;;15.80;10.63;;;;;;;10.34;71.21;99183.66;5037873;28;20061;-55
2021/12/02 10:31:27;;;;;;;15.95;9.32;;;;;;;10.47;70.04;99179.69;5036505;28;20053;-55
2021/12/02 10:34:14;;;;;;;;;;;;;;;10.50;69.60;99177.06;5041256;28;20044;-55
2021/12/02 10:37:10;;;;;;;17.60;9.65;;;;;;;10.47;69.86;99168.81;5041059;28;19913;-55
2021/12/02 10:40:06;;;;;;;21.75;12.00;;;;;;;10.37;70.91;99161.19;5040749;28;20071;-55
2021/12/02 10:42:51;;;;;;;20.48;12.55;;;;;;;10.32;70.99;99151.38;5040799;28;20068;-55
2021/12/02 10:45:36;;;;;;;20.00;9.00;;;;;;;10.28;70.90;99140.44;5040609;28;20048;-55
2021/12/02 10:48:20;;;;;;;18.38;10.00;;;;;;;10.35;71.01;99147.19;5040598;28;20057;-55
2021/12/02 10:51:05;;;;;;;17.52;9.90;;;;;;;10.41;70.66;99132.19;5037148;28;20062;-55
2021/12/02 10:54:02;;;;;;;22.70;12.25;;;;;;;10.41;71.60;99135.72;5040423;28;20048;-55
2021/12/02 10:56:51;;;;;;;23.17;10.05;;;;;;;10.42;72.90;99128.31;5039963;28;20053;-55
2021/12/02 10:59:46;;;;;;;20.65;10.25;;;;;;;10.41;73.05;99130.28;5036626;28;20048;-56
2021/12/02 11:02:42;;;;;;;17.17;11.30;;;;;;;10.38;73.47;99128.25;5040360;28;20076;-56
2021/12/02 11:05:31;;;;;;;15.00;9.10;;;;;;;10.49;73.38;99109.47;5040126;28;20048;-56
2021/12/02 11:08:17;;;;;;;19.95;11.05;;;;;;;10.52;73.41;99112.25;5036821;28;20056;-56
2021/12/02 11:11:01;;;;;;;15.82;9.02;;;;;;;10.56;73.59;99112.38;5037046;28;20048;-56
2021/12/02 11:13:48;;;;;;;18.67;9.55;;;;;;;10.61;73.45;99109.38;5040206;28;20044;-56
2021/12/02 11:16:34;;;;;;;17.02;9.40;;;;;;;10.70;72.99;99101.81;5040299;28;20048;-55
2021/12/02 11:19:20;;;;;;;14.77;9.07;;;;;;;10.60;73.24;99099.63;5039901;28;20064;-56
2021/12/02 11:22:07;;;;;;;16.95;8.13;;;;;;;10.61;73.93;99103.94;5033643;28;20065;-56
2021/12/02 11:24:52;;;;;;;18.95;11.48;;;;;;;10.65;72.15;99100.16;5037284;28;20132;-56
2021/12/02 11:27:41;;;;;;;16.80;7.93;;;;;;;10.68;72.33;99099.44;5045427;28;20053;-56
2021/12/02 11:30:30;;;;;;;21.45;11.02;;;;;;;10.68;71.02;99085.03;5031430;28;20535;-56
2021/12/02 11:33:19;;;;;;;19.52;10.57;;;;;;;10.68;71.17;99088.56;5039897;28;20666;-56
2021/12/02 11:36:05;;;;;;;14.57;9.15;;;;;;;10.68;70.58;99080.41;5039436;28;20052;-56
2021/12/02 11:38:57;;;;;;;14.43;9.77;;;;;;;10.61;70.49;99076.75;5038310;28;20053;-56
2021/12/02 11:41:42;;;;;;;20.20;10.23;;;;;;;10.60;70.79;99077.88;5034483;28;20049;-56
2021/12/02 11:44:27;;;;;;;12.50;7.22;;;;;;;10.56;70.42;99074.31;5032321;28;20040;-56
2021/12/02 11:47:12;;;;;;;11.75;7.13;;;;;;;10.52;70.66;99070.72;5039486;28;20044;-56
2021/12/02 11:49:57;;;;;;;10.38;7.20;;;;;;;10.58;68.89;99077.44;5039186;28;20056;-56
2021/12/02 11:52:43;;;;;;;11.75;7.72;;;;;;;10.58;69.00;99072.00;5039470;28;20048;-56
2021/12/02 11:55:38;;;;;;;22.65;11.00;;;;;;;10.80;67.50;99068.63;5038077;28;20078;-56
2021/12/02 11:58:23;;;;;;;21.77;14.57;;;;;;;10.81;66.97;99056.59;5038888;28;20060;-56
2021/12/02 12:01:29;;;;;;;33.60;19.67;;;;;;;10.75;67.10;99052.59;5035423;28;20064;-56
2021/12/02 12:04:15;;;;;;;20.95;13.63;;;;;;;10.68;68.46;99044.28;5037696;28;20048;-56
2021/12/02 12:07:13;;;;;;;16.88;12.32;;;;;;;10.70;68.35;99045.50;5039107;28;20072;-56
2021/12/02 12:10:26;;;;;;;16.33;11.32;;;;;;;10.77;67.79;99039.41;5038087;28;20048;-55
2021/12/02 12:13:23;;;;;;;20.52;12.73;;;;;;;10.73;68.79;99035.84;5038969;28;20404;-58
2021/12/02 12:16:20;;;;;;;26.15;13.55;;;;;;;10.70;69.37;99029.19;5031162;28;20044;-57
2021/12/02 12:19:27;;;;;;;21.08;12.60;;;;;;;10.70;69.43;99025.69;5035945;28;20040;-57
2021/12/02 12:22:32;;;;;;;21.27;13.45;;;;;;;10.71;68.99;99021.81;5032284;28;20048;-58
2021/12/02 12:25:30;;;;;;;22.17;13.70;;;;;;;10.78;68.15;99021.94;5035880;28;20048;-57
2021/12/02 12:28:14;;;;;;;22.10;13.55;;;;;;;10.78;68.38;99015.72;5039178;28;20048;-58
2021/12/02 12:31:06;;;;;;;16.60;11.68;;;;;;;10.36;69.49;99010.19;5035955;28;20515;-61
2021/12/02 12:33:51;;;;;;;31.27;17.05;;;;;;;10.15;70.17;99010.50;5034706;28;20052;-58
2021/12/02 12:36:41;;;;;;;23.83;13.27;;;;;;;10.33;69.75;98997.31;5028709;28;20511;-58
2021/12/02 12:39:33;;;;;;;26.35;16.23;;;;;;;10.18;69.70;98994.28;5037147;28;20060;-59
2021/12/02 12:42:18;;;;;;;29.73;16.48;;;;;;;9.96;70.01;98994.91;5031969;28;20040;-58
2021/12/02 12:45:05;;;;;;;20.17;11.15;;;;;;;9.96;69.46;98991.41;5033406;28;20053;-56
2021/12/02 12:47:53;;;;;;;25.73;13.50;;;;;;;9.87;69.67;98983.47;5036523;28;20049;-60
2021/12/02 12:50:41;;;;;;;22.92;13.93;;;;;;;9.92;69.39;98980.47;5034857;28;20064;-58
2021/12/02 12:53:29;;;;;;;26.95;13.95;;;;;;;9.77;69.29;98978.56;5032260;28;20041;-60
2021/12/02 12:56:26;;;;;;;27.35;15.43;;;;;;;9.67;69.62;98970.97;5036192;28;20432;-59
2021/12/02 12:59:18;;;;;;;22.83;14.15;;;;;;;9.71;69.25;98966.41;5033871;28;20048;-58
2021/12/02 13:02:03;;;;;;;26.70;14.40;;;;;;;9.56;69.88;98962.56;5031973;28;20056;-58
2021/12/02 13:04:54;;;;;;;18.17;10.45;;;;;;;9.70;69.76;98962.88;5035954;28;20061;-56
2021/12/02 13:07:41;;;;;;;28.98;15.23;;;;;;;9.58;69.69;98956.78;5033720;28;20048;-57
2021/12/02 13:10:29;;;;;;;25.80;13.55;;;;;;;9.45;70.06;98956.09;5036454;28;20052;-58
2021/12/02 13:13:22;;;;;;;22.25;13.85;;;;;;;9.37;70.43;98968.69;5032861;28;20044;-58
2021/12/02 13:16:30;;;;;;;26.45;14.93;;;;;;;9.41;70.28;98966.84;5033478;28;20052;-58
2021/12/02 13:32:27;;;;;;;28.23;14.00;;;;;;;9.23;69.86;98952.06;5017618;28;20049;-58
2021/12/02 13:35:24;;;;;;;36.78;14.32;;;;;;;9.00;70.35;98951.84;5015220;28;20045;-58
2021/12/02 13:38:09;;;;;;;25.92;13.18;;;;;;;9.05;70.07;98948.09;5022431;28;20432;-58